createdAt,value
2022-10-05T00:00:51.249Z,1.95
2022-10-05T00:03:18.407Z,2.05
2022-10-05T00:05:46.283Z,1.42
2022-10-05T00:08:22.693Z,1.88
2022-10-05T00:10:50.993Z,5.30
2022-10-05T00:13:27.160Z,3.97
2022-10-05T00:16:13.063Z,4.18
2022-10-05T00:18:40.792Z,3.70
2022-10-05T00:21:17.031Z,2.35
2022-10-05T00:23:44.206Z,2.92
2022-10-05T00:26:33.237Z,1.67
2022-10-05T00:29:02.135Z,3.65
2022-10-05T00:31:33.016Z,1.65
2022-10-05T00:34:00.288Z,2.58
2022-10-05T00:36:27.469Z,1.70
2022-10-05T00:38:55.341Z,3.60
2022-10-05T00:41:46.988Z,5.25
2022-10-05T00:44:45.136Z,1.65
2022-10-05T00:47:44.328Z,1.80
2022-10-05T00:50:23.314Z,3.47
2022-10-05T00:52:53.254Z,1.63
2022-10-05T00:55:20.284Z,2.10
2022-10-05T00:57:55.460Z,2.35
2022-10-05T01:00:26.939Z,1.67
2022-10-05T01:03:21.381Z,1.88
2022-10-05T01:06:03.673Z,2.00
2022-10-05T01:08:42.892Z,1.77
2022-10-05T01:11:23.783Z,1.50
2022-10-05T01:14:00.114Z,1.50
2022-10-05T01:16:36.282Z,1.40
2022-10-05T01:19:21.794Z,1.33
2022-10-05T01:21:56.095Z,2.08
2022-10-05T01:24:41.445Z,1.75
2022-10-05T01:27:29.686Z,1.60
2022-10-05T01:30:22.970Z,4.28
2022-10-05T01:33:08.579Z,1.67
2022-10-05T01:36:00.347Z,1.70
2022-10-05T01:41:20.462Z,1.73
2022-10-05T01:44:16.358Z,5.28
2022-10-05T01:46:52.375Z,2.28
2022-10-05T01:49:31.456Z,3.92
2022-10-05T01:52:35.977Z,1.77
2022-10-05T01:55:15.181Z,2.88
2022-10-05T01:57:51.421Z,1.60
2022-10-05T02:00:19.949Z,2.75
2022-10-05T02:02:56.256Z,1.85
2022-10-05T02:05:39.550Z,2.28
2022-10-05T02:08:12.407Z,1.77
2022-10-05T02:10:53.467Z,2.67
2022-10-05T02:13:31.404Z,2.38
2022-10-05T02:16:07.643Z,4.38
2022-10-05T02:18:42.113Z,4.30
2022-10-05T02:21:09.458Z,9.57
2022-10-05T02:23:40.987Z,2.42
2022-10-05T02:26:12.060Z,2.20
2022-10-05T02:28:51.304Z,3.70
2022-10-05T02:31:28.383Z,4.28
2022-10-05T02:34:26.559Z,7.30
2022-10-05T02:37:15.029Z,2.33
2022-10-05T02:40:11.463Z,2.80
2022-10-05T02:42:44.781Z,3.22
2022-10-05T02:45:31.616Z,3.45
2022-10-05T02:48:17.432Z,3.08
2022-10-05T02:51:03.178Z,3.03
2022-10-05T02:54:03.570Z,4.75
2022-10-05T02:56:41.493Z,2.30
2022-10-05T02:59:23.544Z,3.90
2022-10-05T03:01:55.983Z,2.50
2022-10-05T03:04:37.796Z,3.80
2022-10-05T03:07:09.022Z,3.33
2022-10-05T03:09:42.762Z,3.80
2022-10-05T03:12:30.812Z,4.07
2022-10-05T03:15:33.027Z,2.53
2022-10-05T03:18:38.445Z,3.28
2022-10-05T03:21:20.222Z,2.30
2022-10-05T03:23:56.979Z,5.27
2022-10-05T03:26:33.205Z,8.13
2022-10-05T03:29:40.530Z,4.18
2022-10-05T03:32:39.723Z,4.20
2022-10-05T03:35:15.875Z,4.05
2022-10-05T03:38:47.664Z,5.20
2022-10-05T03:41:33.661Z,4.18
2022-10-05T03:44:07.130Z,3.78
2022-10-05T03:46:57.506Z,4.20
2022-10-05T03:49:33.660Z,3.38
2022-10-05T03:52:42.679Z,4.05
2022-10-05T03:55:37.242Z,9.95
2022-10-05T03:58:13.821Z,5.18
2022-10-05T04:00:47.954Z,3.80
2022-10-05T04:03:38.224Z,4.10
2022-10-05T04:06:16.394Z,5.22
2022-10-05T04:08:57.173Z,7.45
2022-10-05T04:11:38.364Z,6.05
2022-10-05T04:14:32.386Z,5.07
2022-10-05T04:17:04.996Z,4.90
2022-10-05T04:20:05.381Z,9.23
2022-10-05T04:22:40.827Z,5.30
2022-10-05T04:25:16.758Z,5.22
2022-10-05T04:28:02.470Z,5.68
2022-10-05T04:30:33.094Z,5.32
2022-10-05T04:33:01.015Z,5.85
2022-10-05T04:35:50.282Z,6.57
2022-10-05T04:38:30.125Z,5.32
2022-10-05T04:41:13.504Z,4.63
2022-10-05T04:44:08.108Z,5.55
2022-10-05T04:47:01.907Z,4.38
2022-10-05T04:49:54.031Z,6.55
2022-10-05T04:52:33.714Z,5.97
2022-10-05T04:55:19.927Z,6.22
2022-10-05T04:58:10.977Z,7.15
2022-10-05T05:00:39.034Z,5.85
2022-10-05T05:03:12.073Z,7.32
2022-10-05T05:06:12.027Z,7.45
2022-10-05T05:08:55.436Z,5.30
2022-10-05T05:11:41.269Z,6.68
2022-10-05T05:14:29.766Z,13.32
2022-10-05T05:17:27.563Z,7.50
2022-10-05T05:20:08.005Z,6.28
2022-10-05T05:22:47.160Z,4.03
2022-10-05T05:25:43.722Z,5.97
2022-10-05T05:28:23.590Z,5.18
2022-10-05T05:31:36.378Z,5.53
2022-10-05T05:34:48.479Z,6.78
2022-10-05T05:37:28.703Z,6.28
2022-10-05T05:40:18.395Z,4.80
2022-10-05T05:42:58.386Z,5.03
2022-10-05T05:45:36.674Z,5.32
2022-10-05T05:48:11.300Z,6.75
2022-10-05T05:50:53.971Z,5.07
2022-10-05T06:05:50.051Z,4.43
2022-10-05T06:08:25.254Z,3.25
2022-10-05T06:11:23.620Z,4.82
2022-10-05T06:13:51.876Z,4.18
2022-10-05T06:16:40.942Z,5.85
2022-10-05T06:19:16.706Z,3.10
2022-10-05T06:22:00.726Z,4.50
2022-10-05T06:24:44.384Z,4.93
2022-10-05T06:30:20.512Z,2.10
2022-10-05T06:32:50.968Z,2.90
2022-10-05T06:35:39.084Z,1.25
2022-10-05T06:38:17.928Z,4.25
2022-10-05T06:41:17.195Z,2.55
2022-10-05T06:43:57.071Z,2.88
2022-10-05T06:47:06.019Z,4.28
2022-10-05T06:50:27.421Z,2.72
2022-10-05T06:53:20.362Z,2.33
2022-10-05T06:56:34.107Z,2.33
2022-10-05T06:59:23.901Z,1.73
2022-10-05T07:02:03.894Z,2.17
2022-10-05T07:04:52.663Z,2.55
2022-10-05T07:07:38.703Z,4.97
2022-10-05T07:10:21.271Z,1.98
2022-10-05T07:12:52.091Z,2.05
2022-10-05T07:15:42.878Z,2.03
2022-10-05T09:28:44.596Z,4.47
2022-10-05T09:31:38.780Z,1.50
2022-10-05T09:34:47.854Z,1.20
2022-10-05T09:37:17.660Z,1.40
2022-10-05T09:40:09.567Z,2.95
2022-10-05T09:42:43.999Z,1.40
2022-10-05T09:45:23.457Z,1.08
2022-10-05T09:47:59.999Z,2.25
2022-10-05T09:50:41.028Z,2.42
2022-10-05T09:53:40.976Z,2.28
2022-10-05T09:56:45.801Z,2.22
2022-10-05T09:59:28.379Z,3.08
2022-10-05T10:02:32.435Z,7.55
2022-10-05T10:05:10.945Z,2.67
2022-10-05T10:07:48.774Z,4.55
2022-10-05T10:10:15.869Z,3.47
2022-10-05T10:13:08.084Z,3.45
2022-10-05T10:15:41.338Z,3.40
2022-10-05T10:18:23.458Z,1.17
2022-10-05T10:21:08.812Z,1.70
2022-10-05T10:24:00.400Z,1.20
2022-10-05T10:26:57.076Z,1.67
2022-10-05T10:29:42.571Z,1.83
2022-10-05T10:32:30.643Z,1.50
2022-10-05T10:35:25.635Z,1.67
2022-10-05T10:38:31.874Z,1.77
2022-10-05T10:41:27.335Z,2.15
2022-10-05T10:44:33.502Z,2.85
2022-10-05T10:47:35.038Z,3.08
2022-10-05T10:50:24.420Z,2.80
2022-10-05T10:53:22.826Z,1.42
2022-10-05T10:56:01.778Z,3.28
2022-10-05T10:58:35.149Z,1.45
2022-10-05T11:01:12.005Z,3.72
2022-10-05T11:03:44.971Z,3.35
2022-10-05T11:06:49.250Z,2.22
2022-10-05T11:09:39.991Z,4.10
2022-10-05T11:12:34.557Z,4.68
2022-10-05T11:15:27.075Z,1.77
2022-10-05T11:18:00.223Z,2.55
2022-10-05T11:20:48.428Z,2.33
2022-10-05T11:23:53.063Z,3.15
2022-10-05T11:26:54.097Z,1.65
2022-10-05T11:29:39.496Z,1.40
2022-10-05T11:32:12.822Z,1.50
2022-10-05T11:35:19.840Z,1.80
2022-10-05T11:38:02.716Z,2.95
2022-10-05T11:40:52.038Z,2.28
2022-10-05T11:43:38.790Z,1.33
2022-10-05T11:46:38.305Z,2.65
2022-10-05T11:49:26.635Z,5.68
2022-10-05T11:52:06.698Z,3.35
2022-10-05T11:55:10.415Z,1.48
2022-10-05T11:58:01.878Z,2.05
2022-10-05T12:00:40.695Z,2.22
2022-10-05T12:03:16.855Z,1.33
2022-10-05T12:05:59.534Z,2.05
2022-10-05T12:08:44.016Z,1.67
2022-10-05T12:12:18.958Z,1.40
2022-10-05T12:15:17.677Z,1.48
2022-10-05T12:17:55.827Z,1.77
2022-10-05T12:20:54.362Z,1.77
2022-10-05T12:23:33.717Z,0.90
2022-10-05T12:26:15.497Z,1.60
2022-10-05T12:28:54.639Z,1.98
2022-10-05T12:31:59.738Z,1.30
2022-10-05T12:34:26.883Z,1.75
2022-10-05T12:37:17.288Z,1.80
2022-10-05T12:39:58.233Z,2.15
2022-10-05T12:42:38.099Z,1.70
2022-10-05T12:45:23.412Z,1.67
2022-10-05T12:48:12.313Z,4.57
2022-10-05T12:50:43.276Z,3.42
2022-10-05T12:53:40.363Z,1.42
2022-10-05T12:56:45.562Z,2.13
2022-10-05T12:59:27.973Z,1.60
2022-10-05T13:02:10.864Z,1.33
2022-10-05T13:05:12.150Z,2.42
2022-10-05T13:07:52.698Z,3.17
2022-10-05T13:10:51.906Z,2.17
2022-10-05T13:13:34.415Z,2.45
2022-10-05T13:16:16.031Z,4.10
2022-10-05T13:19:11.236Z,5.55
2022-10-05T13:22:14.742Z,2.08
2022-10-05T13:25:08.829Z,1.77
2022-10-05T13:27:42.621Z,1.65
2022-10-05T13:30:16.123Z,2.25
2022-10-05T13:33:12.522Z,2.08
2022-10-05T13:35:54.456Z,1.40
2022-10-05T13:38:27.579Z,2.78
2022-10-05T13:41:07.115Z,1.45
2022-10-05T13:44:10.968Z,2.85
2022-10-05T13:46:49.586Z,1.80
2022-10-05T13:49:29.680Z,3.85
2022-10-05T13:52:00.381Z,4.50
2022-10-05T13:54:43.023Z,2.42
2022-10-05T13:57:31.963Z,1.92
2022-10-05T14:00:06.416Z,2.28
2022-10-05T14:02:42.451Z,3.10
2022-10-05T14:05:18.770Z,2.67
2022-10-05T14:07:51.805Z,1.63
2022-10-05T14:10:40.553Z,2.05
2022-10-05T14:13:29.720Z,2.67
2022-10-05T14:16:18.254Z,2.60
2022-10-05T14:19:05.689Z,1.45
2022-10-05T14:21:46.951Z,2.38
2022-10-05T14:24:43.667Z,3.42
2022-10-05T14:27:50.475Z,1.42
2022-10-05T14:30:24.538Z,4.00
2022-10-05T14:33:04.094Z,2.17
2022-10-05T14:35:45.273Z,5.28
2022-10-05T14:38:35.384Z,3.67
2022-10-05T14:41:27.782Z,1.77
2022-10-05T14:44:05.834Z,2.10
2022-10-05T14:46:37.058Z,1.90
2022-10-05T14:49:21.258Z,4.10
2022-10-05T14:51:50.504Z,1.48
2022-10-05T14:54:20.542Z,3.88
2022-10-05T14:57:02.754Z,2.15
2022-10-05T14:59:54.041Z,3.00
2022-10-05T15:02:45.737Z,2.92
2022-10-05T15:05:24.987Z,1.98
2022-10-05T15:07:57.348Z,1.75
2022-10-05T15:10:30.792Z,1.48
2022-10-05T15:13:12.234Z,1.55
2022-10-05T15:15:52.177Z,2.78
2022-10-05T15:18:41.162Z,2.28
2022-10-05T15:21:30.075Z,1.27
2022-10-05T15:24:09.475Z,2.00
2022-10-05T15:26:42.623Z,3.67
2022-10-05T15:29:52.561Z,1.30
2022-10-05T15:32:47.709Z,1.60
2022-10-05T15:35:37.283Z,2.80
2022-10-05T15:38:23.771Z,2.67
2022-10-05T15:41:15.012Z,4.20
2022-10-05T15:43:54.133Z,4.85
2022-10-05T15:46:32.064Z,1.70
2022-10-05T15:49:00.735Z,1.92
2022-10-05T15:51:51.139Z,3.80
2022-10-05T15:54:43.353Z,1.98
2022-10-05T15:57:19.538Z,2.92
2022-10-05T15:59:57.453Z,2.17
2022-10-05T16:02:41.814Z,4.07
2022-10-05T16:05:53.265Z,3.15
2022-10-05T16:08:56.239Z,5.90
2022-10-05T16:11:32.400Z,3.67
2022-10-05T16:14:23.582Z,3.80
2022-10-05T16:17:20.386Z,8.55
2022-10-05T16:20:01.541Z,4.38
2022-10-05T16:23:02.746Z,4.65
2022-10-05T16:26:05.319Z,4.35
2022-10-05T16:29:03.699Z,7.60
2022-10-05T16:31:37.596Z,5.68
2022-10-05T16:34:23.907Z,5.95
2022-10-05T16:37:18.480Z,6.32
2022-10-05T16:39:51.864Z,9.05
2022-10-05T16:42:25.181Z,7.25
2022-10-05T16:44:59.949Z,5.60
2022-10-05T16:47:47.798Z,8.15
2022-10-05T16:50:37.350Z,9.02
2022-10-05T16:53:11.418Z,10.15
2022-10-05T16:55:48.512Z,7.18
2022-10-05T16:58:28.663Z,7.40
2022-10-05T17:00:58.895Z,5.53
2022-10-05T17:04:03.827Z,4.60
2022-10-05T17:06:46.078Z,4.28
2022-10-05T17:09:22.235Z,7.43
2022-10-05T17:12:29.549Z,4.53
2022-10-05T17:15:19.858Z,5.57
2022-10-05T17:18:18.980Z,3.97
2022-10-05T17:20:55.280Z,4.78
2022-10-05T17:23:31.849Z,4.07
2022-10-05T17:26:23.671Z,3.25
2022-10-05T17:29:15.464Z,4.25
2022-10-05T17:32:33.744Z,3.03
2022-10-05T17:35:01.922Z,4.65
2022-10-05T17:37:38.981Z,4.93
2022-10-05T17:40:33.775Z,5.13
2022-10-05T17:43:31.805Z,4.93
2022-10-05T17:46:01.067Z,4.40
2022-10-05T17:48:49.848Z,2.92
2022-10-05T17:51:47.509Z,3.25
2022-10-05T17:54:42.680Z,2.95
2022-10-05T17:57:09.792Z,4.00
2022-10-05T17:59:44.725Z,3.45
2022-10-05T18:02:21.944Z,4.85
2022-10-05T18:05:00.864Z,7.20
2022-10-05T18:07:28.388Z,8.23
2022-10-05T18:10:09.717Z,7.68
2022-10-05T18:12:50.923Z,7.95
2022-10-05T18:15:24.237Z,7.95
2022-10-05T18:18:19.966Z,7.43
2022-10-05T18:21:12.617Z,5.43
2022-10-05T18:24:01.332Z,6.18
2022-10-05T18:26:46.830Z,5.18
2022-10-05T18:30:09.301Z,3.55
2022-10-05T18:33:00.749Z,6.32
2022-10-05T18:35:52.168Z,3.83
2022-10-05T18:38:53.088Z,5.22
2022-10-05T18:41:38.807Z,4.68
2022-10-05T18:44:14.546Z,4.30
2022-10-05T18:46:47.633Z,3.65
2022-10-05T18:49:42.625Z,3.20
2022-10-05T18:52:37.027Z,4.63
2022-10-05T18:55:41.353Z,3.03
2022-10-05T18:58:26.190Z,4.25
2022-10-05T19:00:59.670Z,4.72
2022-10-05T19:06:12.749Z,8.05
2022-10-05T19:08:49.850Z,3.60
2022-10-05T19:11:30.167Z,2.30
2022-10-05T19:14:34.818Z,5.65
2022-10-05T19:17:20.333Z,3.65
2022-10-05T19:19:59.530Z,3.33
2022-10-05T19:23:13.745Z,5.93
2022-10-05T19:26:17.862Z,4.68
2022-10-05T19:28:47.948Z,5.55
2022-10-05T19:31:15.261Z,5.53
2022-10-05T19:33:49.590Z,4.78
2022-10-05T19:36:54.841Z,3.65
2022-10-05T19:39:36.273Z,5.32
2022-10-05T19:42:30.951Z,6.50
2022-10-05T19:45:19.065Z,7.57
2022-10-05T19:48:06.019Z,4.72
2022-10-05T19:50:35.082Z,5.75
2022-10-05T19:53:09.383Z,6.65
2022-10-05T19:55:42.466Z,4.93
2022-10-05T19:58:39.124Z,5.43
2022-10-05T20:01:07.138Z,5.03
2022-10-05T20:03:37.461Z,5.00
2022-10-05T20:06:07.961Z,3.63
2022-10-05T20:08:45.243Z,5.85
2022-10-05T20:11:15.438Z,4.10
2022-10-05T20:14:02.886Z,5.45
2022-10-05T20:16:52.189Z,4.05
2022-10-05T20:19:50.199Z,7.03
2022-10-05T20:22:31.809Z,5.05
2022-10-05T20:25:04.996Z,5.10
2022-10-05T20:27:42.465Z,4.60
2022-10-05T20:30:16.062Z,5.32
2022-10-05T20:32:45.247Z,5.53
2022-10-05T20:35:19.231Z,4.60
2022-10-05T20:37:46.365Z,4.97
2022-10-05T20:40:19.383Z,4.72
2022-10-05T20:42:50.263Z,5.15
2022-10-05T20:45:17.731Z,4.95
2022-10-05T20:47:46.786Z,7.47
2022-10-05T20:50:14.579Z,4.72
2022-10-05T20:52:44.846Z,7.03
2022-10-05T20:55:12.407Z,3.78
2022-10-05T20:57:42.373Z,3.58
2022-10-05T21:00:11.247Z,5.10
2022-10-05T21:02:41.910Z,4.63
2022-10-05T21:05:09.766Z,5.47
2022-10-05T21:07:37.057Z,5.53
2022-10-05T21:10:04.791Z,3.25
2022-10-05T21:12:35.193Z,3.53
2022-10-05T21:15:06.559Z,4.22
2022-10-05T21:17:34.829Z,2.88
2022-10-05T21:20:02.292Z,3.92
2022-10-05T21:22:31.288Z,4.75
2022-10-05T21:24:58.656Z,4.05
2022-10-05T21:27:25.796Z,6.55
2022-10-05T21:29:52.897Z,9.70
2022-10-05T21:32:21.056Z,4.63
2022-10-05T21:34:48.111Z,6.45
2022-10-05T21:37:15.651Z,8.25
2022-10-05T21:39:42.904Z,4.18
2022-10-05T21:42:10.057Z,4.93
2022-10-05T21:44:37.171Z,3.97
2022-10-05T21:47:04.416Z,4.80
2022-10-05T21:49:31.901Z,4.30
2022-10-05T21:52:03.286Z,3.53
2022-10-05T21:54:33.547Z,6.60
2022-10-05T21:57:01.061Z,4.03
2022-10-05T21:59:31.446Z,3.72
2022-10-05T22:01:59.191Z,3.03
2022-10-05T22:04:26.377Z,5.35
2022-10-05T22:06:55.700Z,4.00
2022-10-05T22:09:26.238Z,7.25
2022-10-05T22:11:53.544Z,5.35
2022-10-05T22:14:21.164Z,3.92
2022-10-05T22:16:48.423Z,4.93
2022-10-05T22:19:19.382Z,3.05
2022-10-05T22:21:46.656Z,5.53
2022-10-05T22:24:13.832Z,4.72
2022-10-05T22:26:43.899Z,4.28
2022-10-05T22:29:11.057Z,4.32
2022-10-05T22:31:39.301Z,4.53
2022-10-05T22:34:08.908Z,4.93
2022-10-05T22:36:36.520Z,5.55
2022-10-05T22:39:03.972Z,5.43
2022-10-05T22:41:31.062Z,3.92
2022-10-05T22:44:00.915Z,4.45
2022-10-05T22:46:31.116Z,3.45
2022-10-05T22:49:04.443Z,4.60
2022-10-05T22:51:31.603Z,3.17
2022-10-05T22:54:01.387Z,4.10
2022-10-05T22:56:28.751Z,3.55
2022-10-05T22:58:55.933Z,4.40
2022-10-05T23:01:25.684Z,4.10
2022-10-05T23:03:52.834Z,5.45
2022-10-05T23:06:21.165Z,4.95
2022-10-05T23:08:51.120Z,4.05
2022-10-05T23:11:25.998Z,3.83
2022-10-05T23:13:58.872Z,5.45
2022-10-05T23:16:27.950Z,4.78
2022-10-05T23:18:55.836Z,4.30
2022-10-05T23:21:25.261Z,4.40
2022-10-05T23:23:52.413Z,5.22
2022-10-05T23:26:24.893Z,4.72
2022-10-05T23:28:51.977Z,3.60
2022-10-05T23:31:22.496Z,3.92
2022-10-05T23:33:51.155Z,4.38
2022-10-05T23:36:21.347Z,3.30
2022-10-05T23:38:48.746Z,4.30
2022-10-05T23:41:17.321Z,5.50
2022-10-05T23:43:46.244Z,3.97
2022-10-05T23:46:13.842Z,5.55
2022-10-05T23:48:44.120Z,5.63
2022-10-05T23:51:12.970Z,3.50
2022-10-05T23:53:40.054Z,4.05
2022-10-05T23:56:07.324Z,4.47
2022-10-05T23:58:34.517Z,2.83
